地図

経路データ

SID SEASON NUMBER BASIN SUBBASIN NAME ISO_TIME NATURE LAT LON WMO_WIND WMO_PRES WMO_AGENCY TRACK_TYPE DIST2LAND LANDFALL IFLAG USA_AGENCY USA_ATCF_ID USA_LAT USA_LON USA_RECORD USA_STATUS USA_WIND USA_PRES USA_SSHS USA_R34_NE USA_R34_SE USA_R34_SW USA_R34_NW USA_R50_NE USA_R50_SE USA_R50_SW USA_R50_NW USA_R64_NE USA_R64_SE USA_R64_SW USA_R64_NW USA_POCI USA_ROCI USA_RMW USA_EYE TOKYO_LAT TOKYO_LON TOKYO_GRADE TOKYO_WIND TOKYO_PRES TOKYO_R50_DIR TOKYO_R50_LONG TOKYO_R50_SHORT TOKYO_R30_DIR TOKYO_R30_LONG TOKYO_R30_SHORT TOKYO_LAND CMA_LAT CMA_LON CMA_CAT CMA_WIND CMA_PRES HKO_LAT HKO_LON HKO_CAT HKO_WIND HKO_PRES NEWDELHI_LAT NEWDELHI_LON NEWDELHI_GRADE NEWDELHI_WIND NEWDELHI_PRES NEWDELHI_CI NEWDELHI_DP NEWDELHI_POCI REUNION_LAT REUNION_LON REUNION_TYPE REUNION_WIND REUNION_PRES REUNION_TNUM REUNION_CI REUNION_RMW REUNION_R34_NE REUNION_R34_SE REUNION_R34_SW REUNION_R34_NW REUNION_R50_NE REUNION_R50_SE REUNION_R50_SW REUNION_R50_NW REUNION_R64_NE REUNION_R64_SE REUNION_R64_SW REUNION_R64_NW BOM_LAT BOM_LON BOM_TYPE BOM_WIND BOM_PRES BOM_TNUM BOM_CI BOM_RMW BOM_R34_NE BOM_R34_SE BOM_R34_SW BOM_R34_NW BOM_R50_NE BOM_R50_SE BOM_R50_SW BOM_R50_NW BOM_R64_NE BOM_R64_SE BOM_R64_SW BOM_R64_NW BOM_ROCI BOM_POCI BOM_EYE BOM_POS_METHOD BOM_PRES_METHOD NADI_LAT NADI_LON NADI_CAT NADI_WIND NADI_PRES WELLINGTON_LAT WELLINGTON_LON WELLINGTON_WIND WELLINGTON_PRES DS824_LAT DS824_LON DS824_STAGE DS824_WIND DS824_PRES TD9636_LAT TD9636_LON TD9636_STAGE TD9636_WIND TD9636_PRES TD9635_LAT TD9635_LON TD9635_WIND TD9635_PRES TD9635_ROCI NEUMANN_LAT NEUMANN_LON NEUMANN_CLASS NEUMANN_WIND NEUMANN_PRES MLC_LAT MLC_LON MLC_CLASS MLC_WIND MLC_PRES USA_GUST BOM_GUST BOM_GUST_PER REUNION_GUST REUNION_GUST_PER USA_SEAHGT USA_SEARAD_NE USA_SEARAD_SE USA_SEARAD_SW USA_SEARAD_NW STORM_SPEED STORM_DIR
1939070S12063 1939 19 SI MM NOT_NAMED 1939-03-11 06:00:00 NR -11.8000 63.3000 reunion main 1104 1089 _____O________ -1 -11.8000 63.3000 99 9.90000 3 226
1939070S12063 1939 19 SI MM NOT_NAMED 1939-03-11 09:00:00 NR -11.8871 63.2080 main 1089 1074 _____P________ -1 -11.8871 63.2080 99 3 226
1939070S12063 1939 19 SI MM NOT_NAMED 1939-03-11 12:00:00 NR -11.9790 63.1105 main 1074 1059 _____P________ -1 -11.9790 63.1105 99 3 226
1939070S12063 1939 19 SI MM NOT_NAMED 1939-03-11 15:00:00 NR -12.0805 63.0020 main 1059 1043 _____P________ -1 -12.0805 63.0020 99 3 226
1939070S12063 1939 19 SI MM NOT_NAMED 1939-03-11 18:00:00 NR -12.1965 62.8769 main 1043 1023 _____P________ -1 -12.1965 62.8769 99 4 227
1939070S12063 1939 19 SI MM NOT_NAMED 1939-03-11 21:00:00 NR -12.3316 62.7298 main 1023 998 _____P________ -1 -12.3316 62.7298 99 4 227
1939070S12063 1939 19 SI MM NOT_NAMED 1939-03-12 00:00:00 NR -12.4907 62.5550 main 998 967 _____P________ -1 -12.4907 62.5550 99 5 227
1939070S12063 1939 19 SI MM NOT_NAMED 1939-03-12 03:00:00 NR -12.6786 62.3470 main 962 932 _____P________ -1 -12.6786 62.3470 99 6 227
1939070S12063 1939 19 SI MM NOT_NAMED 1939-03-12 06:00:00 NR -12.9000 62.1000 reunion main 932 896 _____O________ -1 -12.9000 62.1000 99 9.90000 7 227
1939070S12063 1939 19 SI MM NOT_NAMED 1939-03-12 09:00:00 NR -13.1583 61.8104 main 887 851 _____P________ -1 -13.1583 61.8104 99 8 227
1939070S12063 1939 19 SI MM NOT_NAMED 1939-03-12 12:00:00 NR -13.4520 61.4830 main 842 792 _____P________ -1 -13.4520 61.4830 99 9 227
1939070S12063 1939 19 SI MM NOT_NAMED 1939-03-12 15:00:00 NR -13.7782 61.1243 main 792 747 _____P________ -1 -13.7782 61.1243 99 10 227
1939070S12063 1939 19 SI MM NOT_NAMED 1939-03-12 18:00:00 NR -14.1340 60.7412 main 743 689 _____P________ -1 -14.1340 60.7412 99 11 226
1939070S12063 1939 19 SI MM NOT_NAMED 1939-03-12 21:00:00 NR -14.5168 60.3404 main 684 630 _____P________ -1 -14.5168 60.3404 99 11 225
1939070S12063 1939 19 SI MM NOT_NAMED 1939-03-13 00:00:00 NR -14.9238 59.9288 main 626 569 _____P________ -1 -14.9238 59.9288 99 12 224
1939070S12063 1939 19 SI MM NOT_NAMED 1939-03-13 03:00:00 NR -15.3524 59.5130 main 559 503 _____P________ -1 -15.3524 59.5130 99 12 222
1939070S12063 1939 19 SI MM NOT_NAMED 1939-03-13 06:00:00 NR -15.8000 59.1000 reunion main 503 448 _____O________ -1 -15.8000 59.1000 99 9.90000 12 220
1939070S12063 1939 19 SI MM NOT_NAMED 1939-03-13 09:00:00 NR -16.2734 58.7104 main 438 385 _____P________ -1 -16.2734 58.7104 99 12 218
1939070S12063 1939 19 SI MM NOT_NAMED 1939-03-13 12:00:00 NR -16.7733 58.3177 main 374 313 _____P________ -1 -16.7733 58.3177 99 13 217
1939070S12063 1939 19 SI MM NOT_NAMED 1939-03-13 15:00:00 NR -17.2902 57.9236 main 313 257 _____P________ -1 -17.2902 57.9236 99 13 216
1939070S12063 1939 19 SI MM NOT_NAMED 1939-03-13 18:00:00 NR -17.8146 57.5300 main 257 203 _____P________ -1 -17.8146 57.5300 99 13 216
1939070S12063 1939 19 SI MM NOT_NAMED 1939-03-13 21:00:00 NR -18.3372 57.1387 main 205 162 _____P________ -1 -18.3372 57.1387 99 13 216
1939070S12063 1939 19 SI MM NOT_NAMED 1939-03-14 00:00:00 NR -18.8486 56.7518 main 162 145 _____P________ -1 -18.8486 56.7518 99 12 216
1939070S12063 1939 19 SI MM NOT_NAMED 1939-03-14 03:00:00 NR -19.3393 56.3715 main 145 137 _____P________ -1 -19.3393 56.3715 99 12 217
1939070S12063 1939 19 SI MM NOT_NAMED 1939-03-14 06:00:00 NR -19.8000 56.0000 reunion main 137 100 _____O________ -1 -19.8000 56.0000 99 9.90000 11 223
1939070S12063 1939 19 SI MM NOT_NAMED 1939-03-14 09:00:00 NR -20.1468 55.5783 main 100 67 _____P________ -1 -20.1468 55.5783 99 10 230
1939070S12063 1939 19 SI MM NOT_NAMED 1939-03-14 12:00:00 NR -20.4599 55.1578 main 56 53 _____P________ -1 -20.4599 55.1578 99 10 232
1939070S12063 1939 19 SI MM NOT_NAMED 1939-03-14 15:00:00 NR -20.7547 54.7502 main 53 53 _____P________ -1 -20.7547 54.7502 99 9 232
1939070S12063 1939 19 SI MM NOT_NAMED 1939-03-14 18:00:00 NR -21.0468 54.3667 main 83 83 _____P________ -1 -21.0468 54.3667 99 9 229
1939070S12063 1939 19 SI MM NOT_NAMED 1939-03-14 21:00:00 NR -21.3517 54.0186 main 128 128 _____P________ -1 -21.3517 54.0186 99 9 223
1939070S12063 1939 19 SI MM NOT_NAMED 1939-03-15 00:00:00 NR -21.6850 53.7172 main 169 169 _____P________ -1 -21.6850 53.7172 99 9 215
1939070S12063 1939 19 SI MM NOT_NAMED 1939-03-15 03:00:00 NR -22.0625 53.4739 main 206 206 _____P________ -1 -22.0625 53.4739 99 9 205
1939070S12063 1939 19 SI MM NOT_NAMED 1939-03-15 06:00:00 NR -22.5000 53.3000 reunion main 246 246 _____O________ -1 -22.5000 53.3000 99 9.90000 11 192
1939070S12063 1939 19 SI MM NOT_NAMED 1939-03-15 09:00:00 NR -23.1303 53.2284 main 295 295 _____P________ -1 -23.1303 53.2284 99 13 183
1939070S12063 1939 19 SI MM NOT_NAMED 1939-03-15 12:00:00 NR -23.8285 53.2293 main 352 352 _____P________ -1 -23.8285 53.2293 99 14 178
1939070S12063 1939 19 SI MM NOT_NAMED 1939-03-15 15:00:00 NR -24.5671 53.2896 main 421 421 _____P________ -1 -24.5671 53.2896 99 15 174
1939070S12063 1939 19 SI MM NOT_NAMED 1939-03-15 18:00:00 NR -25.3186 53.3959 main 487 487 _____P________ -1 -25.3186 53.3959 99 15 172
1939070S12063 1939 19 SI MM NOT_NAMED 1939-03-15 21:00:00 NR -26.0552 53.5345 main 566 563 _____P________ -1 -26.0552 53.5345 99 15 169
1939070S12063 1939 19 SI MM NOT_NAMED 1939-03-16 00:00:00 NR -26.7493 53.6913 main 622 622 _____P________ -1 -26.7493 53.6913 99 14 168
1939070S12063 1939 19 SI MM NOT_NAMED 1939-03-16 03:00:00 NR -27.3734 53.8515 main 692 692 _____P________ -1 -27.3734 53.8515 99 12 167
1939070S12063 1939 19 SI MM NOT_NAMED 1939-03-16 06:00:00 NR -27.9000 54.0000 reunion main 744 744 _____O________ -1 -27.9000 54.0000 99 9.90000 10 166
1939070S12063 1939 19 SI MM NOT_NAMED 1939-03-16 09:00:00 NR -28.3092 54.1243 main 785 785 _____P________ -1 -28.3092 54.1243 99 7 164
1939070S12063 1939 19 SI MM NOT_NAMED 1939-03-16 12:00:00 NR -28.6095 54.2244 main 810 810 _____P________ -1 -28.6095 54.2244 99 5 162
1939070S12063 1939 19 SI MM NOT_NAMED 1939-03-16 15:00:00 NR -28.8167 54.3032 main 829 829 _____P________ -1 -28.8167 54.3032 99 4 160
1939070S12063 1939 19 SI MM NOT_NAMED 1939-03-16 18:00:00 NR -28.9463 54.3643 main 843 843 _____P________ -1 -28.9463 54.3643 99 2 154
1939070S12063 1939 19 SI MM NOT_NAMED 1939-03-16 21:00:00 NR -29.0140 54.4109 main 849 849 _____P________ -1 -29.0140 54.4109 99 1 143
1939070S12063 1939 19 SI MM NOT_NAMED 1939-03-17 00:00:00 NR -29.0351 54.4467 main 849 849 _____P________ -1 -29.0351 54.4467 99 1 102
1939070S12063 1939 19 SI MM NOT_NAMED 1939-03-17 03:00:00 NR -29.0253 54.4751 main 856 856 _____P________ -1 -29.0253 54.4751 99 1 51
1939070S12063 1939 19 SI MM NOT_NAMED 1939-03-17 06:00:00 NR -29.0000 54.5000 reunion main 856 _____O________ -1 -29.0000 54.5000 99 9.90000 1 0

IBTrACS Databaseについて

本データベースは、米国NOAAが公開する1842年以降の世界の熱帯低気圧のベストトラックデータアーカイブInternational Best Track Archive for Climate Stewardship (IBTrACS)を、ウェブで閲覧しやすい形式に変換したものです。

最終更新日:2021-12-08